Time;durP1;ratioP1;P1;durP2;ratioP2;P2;SDS_P1;SDS_P2;PMS_P1;PMS_P2;Temp;Humidity;BMP_temperature;BMP_pressure;BME280_temperature;BME280_humidity;BME280_pressure;Samples;Min_cycle;Max_cycle;Signal;HPM_P1;HPM_P2
2022/02/09 00:01:30;;;;;;;6.53;2.13;;;11.00;99.90;;;;;;5026015;28;20466;-82
2022/02/09 00:04:06;;;;;;;3.30;1.87;;;11.00;99.90;;;;;;5023320;28;20872;-81
2022/02/09 00:06:43;;;;;;;2.07;1.50;;;11.00;99.90;;;;;;5033135;28;20445;-80
2022/02/09 00:09:12;;;;;;;2.60;1.33;;;11.00;99.90;;;;;;5030196;28;20551;-80
2022/02/09 00:11:45;;;;;;;5.40;1.97;;;11.00;99.90;;;;;;5035217;28;20460;-80
2022/02/09 00:14:24;;;;;;;5.23;1.80;;;11.00;99.90;;;;;;5026816;28;20453;-80
2022/02/09 00:19:56;;;;;;;1.50;1.40;;;11.10;99.90;;;;;;5022287;28;20563;-80
2022/02/09 00:22:37;;;;;;;1.80;1.33;;;11.00;99.90;;;;;;5054832;28;20493;-80
2022/02/09 00:26:20;;;;;;;1.97;1.20;;;11.00;99.90;;;;;;5030239;28;20659;-80
2022/02/09 00:28:25;;;;;;;2.23;1.30;;;11.00;99.90;;;;;;5026571;28;20504;-80
2022/02/09 00:36:51;;;;;;;1.50;1.30;;;11.00;99.90;;;;;;5052155;28;20609;-81
2022/02/09 00:39:47;;;;;;;1.93;1.20;;;11.00;99.90;;;;;;5025284;28;20935;-81
2022/02/09 00:42:32;;;;;;;3.53;1.40;;;11.00;99.90;;;;;;5037255;28;20487;-79
2022/02/09 01:38:12;;;;;;;4.10;3.10;;;10.80;99.90;;;;;;5039514;28;20485;-81
2022/02/09 01:57:27;;;;;;;2.07;1.30;;;10.70;99.90;;;;;;5029632;28;20565;-80
2022/02/09 01:59:55;;;;;;;5.30;1.53;;;10.80;99.90;;;;;;5021893;28;20490;-81
2022/02/09 02:02:24;;;;;;;2.67;1.23;;;10.70;99.90;;;;;;5024656;28;20504;-80
2022/02/09 02:04:52;;;;;;;7.13;1.80;;;10.70;99.90;;;;;;5056926;28;20459;-81
2022/02/09 02:07:30;;;;;;;1.87;1.03;;;10.80;99.90;;;;;;5023013;28;20776;-81
2022/02/09 02:10:05;;;;;;;1.57;0.93;;;10.70;99.90;;;;;;5024404;28;20808;-81
2022/02/09 02:12:49;;;;;;;1.13;1.00;;;10.70;99.90;;;;;;5022208;28;20459;-82
2022/02/09 02:15:41;;;;;;;1.27;1.07;;;10.80;99.90;;;;;;5022026;28;20493;-81
2022/02/09 02:18:10;;;;;;;1.40;0.97;;;10.80;99.90;;;;;;5030826;28;22079;-80
2022/02/09 02:20:48;;;;;;;3.37;1.40;;;10.80;99.90;;;;;;5039927;28;20475;-82
2022/02/09 02:23:34;;;;;;;1.13;0.80;;;10.80;99.90;;;;;;5027763;28;20471;-80
2022/02/09 02:26:15;;;;;;;0.83;0.80;;;10.80;99.90;;;;;;5029074;28;20925;-79
2022/02/09 02:28:57;;;;;;;1.00;0.90;;;10.80;99.90;;;;;;5026269;28;20530;-80
2022/02/09 02:31:49;;;;;;;1.10;1.00;;;10.80;99.90;;;;;;5053280;28;20466;-80
2022/02/09 02:37:18;;;;;;;1.73;0.90;;;10.90;99.90;;;;;;5025491;28;20498;-80
2022/02/09 02:59:33;;;;;;;1.83;1.30;;;10.80;99.90;;;;;;5026055;28;21080;-80
2022/02/09 03:08:22;;;;;;;1.20;0.80;;;10.80;99.90;;;;;;5026137;28;20447;-81
2022/02/09 03:13:24;;;;;;;1.20;1.10;;;10.80;99.90;;;;;;5027139;28;20560;-81
2022/02/09 03:15:58;;;;;;;1.40;1.03;;;10.80;99.90;;;;;;5023922;28;20526;-81
2022/02/09 03:21:42;;;;;;;3.03;1.13;;;10.70;99.90;;;;;;4999239;28;20472;-81
2022/02/09 03:24:15;;;;;;;1.80;1.20;;;10.70;99.90;;;;;;5025139;28;20544;-81
2022/02/09 03:27:06;;;;;;;1.70;1.20;;;10.70;99.90;;;;;;5024354;28;20494;-81
2022/02/09 03:46:52;;;;;;;1.43;1.20;;;10.70;99.90;;;;;;4981180;28;20793;-81
2022/02/09 03:49:35;;;;;;;3.50;1.20;;;10.70;99.90;;;;;;4977830;28;20478;-82
2022/02/09 03:52:11;;;;;;;5.00;1.30;;;10.60;99.90;;;;;;5006034;28;20460;-81
2022/02/09 03:54:52;;;;;;;1.50;1.20;;;10.60;99.90;;;;;;5023897;28;20467;-81
2022/02/09 03:57:25;;;;;;;1.20;1.10;;;10.50;99.90;;;;;;5025981;28;20546;-80
2022/02/09 03:59:55;;;;;;;3.43;1.40;;;10.50;99.90;;;;;;5026320;28;21266;-82
2022/02/09 04:02:26;;;;;;;1.43;1.20;;;10.40;99.90;;;;;;5020023;28;20486;-82
2022/02/09 04:04:57;;;;;;;1.47;1.30;;;10.50;99.90;;;;;;5026380;28;20478;-81
2022/02/09 04:07:25;;;;;;;1.53;1.20;;;10.40;99.90;;;;;;5059450;28;20467;-82
2022/02/09 04:09:57;;;;;;;1.77;1.17;;;10.30;99.90;;;;;;5054037;28;20577;-82
2022/02/09 04:12:34;;;;;;;2.73;1.30;;;10.30;99.90;;;;;;5024812;28;20454;-82
2022/02/09 04:15:17;;;;;;;5.13;1.90;;;10.30;99.90;;;;;;5020275;28;20465;-82
2022/02/09 04:18:01;;;;;;;2.07;1.20;;;10.30;99.90;;;;;;5023375;28;20488;-81
2022/02/09 04:22:25;;;;;;;2.93;1.50;;;10.30;99.90;;;;;;5025758;28;22313;-82
2022/02/09 04:37:28;;;;;;;2.23;1.27;;;10.20;99.90;;;;;;5029247;28;20457;-81
2022/02/09 04:40:02;;;;;;;2.00;1.10;;;10.20;99.90;;;;;;5017503;28;20468;-81
2022/02/09 04:42:50;;;;;;;1.93;1.63;;;10.20;99.90;;;;;;5054532;28;20495;-82
2022/02/09 04:48:37;;;;;;;4.78;2.33;;;10.20;99.90;;;;;;4958075;28;20865;-82
2022/02/09 04:51:18;;;;;;;1.70;1.60;;;10.10;99.90;;;;;;5019663;28;20576;-82
2022/02/09 04:56:41;;;;;;;1.90;1.20;;;10.20;99.90;;;;;;5027785;28;20502;-81
2022/02/09 04:59:17;;;;;;;2.33;1.60;;;10.20;99.90;;;;;;5019320;28;20464;-81
2022/02/09 05:02:09;;;;;;;1.43;1.27;;;10.20;99.90;;;;;;5028290;28;20459;-82
2022/02/09 05:04:58;;;;;;;2.70;2.03;;;10.20;99.90;;;;;;5019365;28;20463;-82
2022/02/09 05:24:23;;;;;;;3.93;2.10;;;10.10;99.90;;;;;;5004198;28;21045;-82
2022/02/09 05:27:03;;;;;;;2.43;1.60;;;10.10;99.90;;;;;;5022413;28;20561;-82
2022/02/09 05:29:31;;;;;;;2.17;1.73;;;10.10;99.90;;;;;;5022124;28;20575;-82
2022/02/09 05:31:59;;;;;;;2.93;1.90;;;10.10;99.90;;;;;;5026727;28;20516;-83
2022/02/09 05:34:28;;;;;;;2.83;1.30;;;10.10;99.90;;;;;;5028022;28;20468;-80
2022/02/09 05:36:56;;;;;;;2.27;1.70;;;10.10;99.90;;;;;;5029505;28;20491;-79
2022/02/09 05:39:26;;;;;;;2.77;1.60;;;10.10;99.90;;;;;;5055198;28;20568;-79
2022/02/09 05:41:55;;;;;;;7.27;1.53;;;10.10;99.90;;;;;;5022758;28;20954;-80
2022/02/09 05:44:24;;;;;;;4.17;1.67;;;10.10;99.90;;;;;;5022721;28;20484;-78
2022/02/09 05:47:30;;;;;;;3.00;1.80;;;10.00;99.90;;;;;;5025945;28;20459;-78
2022/02/09 05:49:59;;;;;;;2.40;1.43;;;10.10;99.90;;;;;;5024858;28;20470;-79
2022/02/09 05:52:32;;;;;;;1.63;1.53;;;10.10;99.90;;;;;;5018165;28;20552;-79
2022/02/09 05:55:21;;;;;;;4.00;1.30;;;10.00;99.90;;;;;;5019717;28;20464;-78
2022/02/09 05:57:53;;;;;;;4.13;1.50;;;10.00;99.90;;;;;;5019082;28;20863;-78
2022/02/09 06:00:21;;;;;;;2.83;1.20;;;10.00;99.90;;;;;;5020521;28;20507;-79
2022/02/09 06:02:50;;;;;;;5.37;2.00;;;9.90;99.90;;;;;;5023567;28;20946;-78
2022/02/09 06:05:18;;;;;;;2.23;1.67;;;9.90;99.90;;;;;;5021140;28;20456;-78
2022/02/09 06:07:52;;;;;;;2.70;1.57;;;10.00;99.90;;;;;;5022788;28;20461;-78
2022/02/09 06:10:27;;;;;;;2.10;1.50;;;10.00;99.90;;;;;;5021543;28;20497;-78
2022/02/09 06:13:09;;;;;;;1.53;1.43;;;10.00;99.90;;;;;;5034761;28;20469;-78
2022/02/09 06:16:04;;;;;;;4.13;1.70;;;9.90;99.90;;;;;;5054351;28;20563;-78
2022/02/09 06:21:20;;;;;;;1.90;1.50;;;9.90;99.90;;;;;;5019578;28;20460;-78
2022/02/09 06:23:49;;;;;;;2.53;1.30;;;9.90;99.90;;;;;;5027378;28;20467;-78
2022/02/09 06:26:19;;;;;;;2.23;1.83;;;9.90;99.90;;;;;;5022704;28;20470;-79
2022/02/09 06:28:47;;;;;;;2.27;1.40;;;9.80;99.90;;;;;;5023409;28;20562;-77
2022/02/09 06:31:16;;;;;;;2.73;1.43;;;9.70;99.90;;;;;;5017915;28;20510;-78
2022/02/09 06:33:44;;;;;;;2.73;1.60;;;9.70;99.90;;;;;;5031171;28;21111;-78
2022/02/09 06:36:14;;;;;;;3.30;1.40;;;9.60;99.90;;;;;;5028802;28;20673;-77
2022/02/09 06:38:43;;;;;;;3.57;1.50;;;9.60;99.90;;;;;;5026723;28;20488;-78
2022/02/09 06:41:11;;;;;;;2.20;1.50;;;9.50;99.90;;;;;;5032461;28;20550;-78
2022/02/09 06:43:41;;;;;;;3.30;1.50;;;9.50;99.90;;;;;;5028626;28;20456;-78
2022/02/09 06:46:10;;;;;;;1.47;1.37;;;9.40;99.90;;;;;;5031344;28;20455;-78
2022/02/09 06:48:39;;;;;;;2.03;1.50;;;9.40;99.90;;;;;;5025244;28;20831;-78
2022/02/09 06:51:11;;;;;;;3.77;1.73;;;9.40;99.90;;;;;;5032713;28;20834;-78
2022/02/09 06:53:46;;;;;;;2.87;1.87;;;9.30;99.90;;;;;;5027153;28;20462;-78
2022/02/09 06:56:24;;;;;;;2.20;1.50;;;9.30;99.90;;;;;;5029669;28;20457;-79
2022/02/09 06:59:09;;;;;;;3.77;1.60;;;9.20;99.90;;;;;;5033920;28;20504;-78
2022/02/09 07:01:38;;;;;;;1.63;1.53;;;9.20;99.90;;;;;;5031026;28;20562;-78
2022/02/09 07:04:06;;;;;;;3.80;1.40;;;9.20;99.90;;;;;;5030217;28;20954;-78
2022/02/09 07:06:35;;;;;;;3.17;1.57;;;9.10;99.90;;;;;;5058982;28;20459;-78
2022/02/09 07:09:05;;;;;;;1.93;1.20;;;9.20;99.90;;;;;;5029134;28;20482;-78
2022/02/09 07:11:34;;;;;;;1.63;1.53;;;9.30;99.90;;;;;;5029193;28;20957;-78
2022/02/09 07:14:04;;;;;;;1.67;1.40;;;9.30;99.90;;;;;;5034925;28;21255;-78
2022/02/09 07:16:33;;;;;;;2.27;1.33;;;9.30;99.90;;;;;;5034507;28;20468;-78
2022/02/09 07:19:06;;;;;;;2.60;1.83;;;9.30;99.90;;;;;;5037790;28;20478;-78
2022/02/09 07:21:37;;;;;;;2.30;1.93;;;9.40;99.90;;;;;;5026241;28;20459;-77
2022/02/09 07:24:07;;;;;;;2.53;1.30;;;9.40;99.90;;;;;;5026863;28;20463;-78
2022/02/09 07:26:49;;;;;;;6.30;1.57;;;9.40;99.90;;;;;;5028193;28;20440;-78
2022/02/09 07:29:20;;;;;;;5.13;1.63;;;9.30;99.90;;;;;;5017187;28;20581;-78
2022/02/09 07:31:48;;;;;;;5.17;1.83;;;9.20;99.90;;;;;;5029093;28;20544;-77
2022/02/09 07:34:17;;;;;;;3.07;1.43;;;9.20;99.90;;;;;;5031317;28;20515;-78
2022/02/09 07:36:46;;;;;;;3.73;1.50;;;9.10;99.90;;;;;;5025344;28;20548;-77
2022/02/09 07:39:14;;;;;;;3.67;1.80;;;9.20;99.90;;;;;;5023662;28;20569;-78
2022/02/09 07:41:46;;;;;;;2.23;1.43;;;9.20;99.90;;;;;;5025828;28;20866;-78
2022/02/09 07:44:30;;;;;;;4.13;2.03;;;9.20;99.90;;;;;;5032427;28;20557;-78
2022/02/09 07:50:03;;;;;;;3.87;1.83;;;9.20;99.90;;;;;;5019241;28;20473;-78
2022/02/09 07:52:48;;;;;;;6.90;2.13;;;9.30;99.90;;;;;;5024766;28;20857;-79
2022/02/09 07:55:16;;;;;;;3.70;1.43;;;9.30;99.90;;;;;;5026229;28;20449;-78
2022/02/09 07:57:45;;;;;;;4.37;1.70;;;9.40;99.90;;;;;;5028626;28;20530;-78
2022/02/09 08:00:14;;;;;;;4.30;1.40;;;9.50;99.90;;;;;;5031559;28;20920;-78
2022/02/09 08:02:46;;;;;;;3.23;1.30;;;9.60;99.90;;;;;;5028027;28;20526;-79
2022/02/09 08:05:15;;;;;;;2.30;1.47;;;9.60;99.90;;;;;;5031713;28;20455;-78
2022/02/09 08:07:43;;;;;;;1.30;1.20;;;9.60;99.90;;;;;;5024088;28;20547;-78
2022/02/09 08:10:19;;;;;;;1.63;1.50;;;9.70;99.90;;;;;;5026739;28;20509;-78
2022/02/09 08:20:25;;;;;;;1.77;1.30;;;9.80;99.90;;;;;;5032101;28;20495;-78
2022/02/09 08:29:47;;;;;;;6.53;1.20;;;10.10;99.90;;;;;;5023543;28;20491;-78
2022/02/09 08:32:39;;;;;;;3.30;1.30;;;10.20;99.90;;;;;;5021250;28;20466;-78
2022/02/09 08:35:10;;;;;;;3.93;1.37;;;10.30;99.90;;;;;;5023609;28;20464;-78
2022/02/09 08:37:39;;;;;;;1.27;1.17;;;10.40;99.90;;;;;;5022282;28;20510;-79
2022/02/09 08:40:11;;;;;;;2.50;1.00;;;10.50;99.90;;;;;;5028119;28;20507;-78
2022/02/09 08:42:39;;;;;;;2.90;1.10;;;10.60;99.90;;;;;;5027006;28;20756;-78
2022/02/09 08:45:09;;;;;;;2.90;1.03;;;10.60;99.90;;;;;;5026233;28;20456;-78
2022/02/09 08:47:52;;;;;;;4.30;1.20;;;10.80;99.90;;;;;;5026402;28;20890;-78
2022/02/09 08:50:22;;;;;;;1.50;1.10;;;10.60;99.90;;;;;;5059894;28;20851;-78
2022/02/09 08:52:52;;;;;;;1.50;0.90;;;10.60;99.90;;;;;;5023081;28;20452;-78
2022/02/09 08:55:21;;;;;;;4.33;1.50;;;10.80;99.90;;;;;;5024039;28;20895;-78
2022/02/09 08:57:49;;;;;;;2.80;1.10;;;10.80;99.90;;;;;;5025942;28;21105;-78
2022/02/09 09:00:23;;;;;;;1.73;1.10;;;10.90;99.90;;;;;;5025526;28;20482;-78
2022/02/09 09:03:04;;;;;;;1.87;1.07;;;10.90;99.90;;;;;;5025305;28;20597;-79
2022/02/09 09:05:43;;;;;;;3.93;1.20;;;11.10;99.90;;;;;;5023523;28;20480;-79
2022/02/09 09:08:37;;;;;;;2.60;1.40;;;11.20;99.90;;;;;;5024710;28;20471;-78
2022/02/09 09:31:09;;;;;;;4.33;1.17;;;11.90;99.90;;;;;;5028990;28;20463;-79
2022/02/09 09:31:38;;;;;;;2.87;1.27;;;12.00;99.90;;;;;;5023513;28;20454;-79
2022/02/09 10:01:55;;;;;;;1.10;0.80;;;14.50;99.90;;;;;;4997548;28;20484;-78
2022/02/09 10:33:07;;;;;;;3.13;1.03;;;16.50;99.90;;;;;;5035534;28;20464;-79
2022/02/09 10:35:39;;;;;;;1.00;1.00;;;16.70;99.90;;;;;;5026603;28;20958;-79
2022/02/09 10:38:23;;;;;;;2.80;0.90;;;17.00;99.90;;;;;;5030486;28;20459;-79
2022/02/09 10:40:54;;;;;;;1.80;0.70;;;17.10;99.90;;;;;;5026354;28;20492;-79
2022/02/09 10:43:30;;;;;;;1.10;0.90;;;17.20;99.90;;;;;;5028263;28;20513;-80
2022/02/09 10:46:19;;;;;;;1.20;0.90;;;17.40;99.90;;;;;;5058815;28;20454;-79
2022/02/09 10:48:53;;;;;;;1.40;1.00;;;17.60;99.90;;;;;;5025685;28;20837;-80
2022/02/09 10:51:30;;;;;;;0.83;0.80;;;17.70;99.90;;;;;;5041884;28;20845;-79
2022/02/09 10:54:07;;;;;;;1.77;1.50;;;17.80;99.90;;;;;;5027307;28;20910;-80
2022/02/09 10:56:37;;;;;;;1.97;1.17;;;18.10;99.90;;;;;;5055702;28;20482;-80
2022/02/09 10:59:08;;;;;;;2.33;1.00;;;18.20;99.90;;;;;;5023454;28;20472;-79
2022/02/09 11:01:39;;;;;;;0.90;0.80;;;18.30;99.90;;;;;;5049667;28;20461;-82
2022/02/09 11:04:09;;;;;;;1.47;0.80;;;18.60;99.90;;;;;;5028689;28;20208;-82
2022/02/09 11:06:40;;;;;;;1.50;0.90;;;18.80;99.90;;;;;;5058924;28;20457;-80
2022/02/09 11:09:11;;;;;;;2.60;0.90;;;19.20;99.90;;;;;;5028989;28;20472;-79
2022/02/09 11:11:42;;;;;;;3.33;0.90;;;19.20;99.90;;;;;;5027239;28;21052;-79
2022/02/09 11:14:14;;;;;;;1.77;1.40;;;18.90;99.90;;;;;;5027932;28;20531;-80
2022/02/09 11:16:48;;;;;;;2.00;1.20;;;19.00;99.90;;;;;;5057587;28;20498;-80
2022/02/09 11:19:18;;;;;;;2.57;1.07;;;19.20;99.90;;;;;;5028851;28;20474;-80
2022/02/09 11:21:50;;;;;;;3.50;1.30;;;19.50;99.90;;;;;;5023980;28;20470;-80
2022/02/09 11:24:21;;;;;;;0.97;0.90;;;19.70;99.90;;;;;;5024549;28;20453;-81
2022/02/09 11:26:58;;;;;;;2.23;1.10;;;20.00;99.90;;;;;;5026214;28;20468;-80
2022/02/09 11:29:44;;;;;;;1.00;0.80;;;20.10;99.90;;;;;;5037100;28;20471;-79
2022/02/09 11:32:28;;;;;;;1.03;0.80;;;20.10;99.90;;;;;;5026016;28;20453;-79
2022/02/09 11:35:29;;;;;;;1.30;0.77;;;19.90;99.90;;;;;;5024649;28;20933;-79
2022/02/09 11:38:16;;;;;;;2.80;0.83;;;20.00;99.90;;;;;;5024273;28;20471;-79
2022/02/09 11:40:52;;;;;;;1.80;0.90;;;20.20;99.90;;;;;;5058598;28;20915;-79
2022/02/09 11:44:03;;;;;;;1.70;1.13;;;20.30;99.90;;;;;;5027109;28;21225;-79
2022/02/09 11:46:43;;;;;;;1.10;0.53;;;20.10;99.90;;;;;;5050660;28;20456;-79
2022/02/09 12:10:26;;;;;;;1.40;0.63;;;18.00;99.90;;;;;;5080391;28;20500;-79
2022/02/09 12:13:01;;;;;;;1.13;0.93;;;17.80;99.90;;;;;;5096389;28;20480;-79
2022/02/09 12:16:30;;;;;;;1.73;0.60;;;17.80;99.90;;;;;;5090896;28;20523;-79
2022/02/09 12:18:59;;;;;;;0.63;0.63;;;17.70;99.90;;;;;;5089504;28;20563;-78
2022/02/09 12:21:42;;;;;;;0.80;0.70;;;17.70;99.90;;;;;;5096658;28;20459;-79
2022/02/09 12:24:26;;;;;;;0.53;0.53;;;17.70;99.90;;;;;;5088778;28;20953;-79
2022/02/09 12:27:01;;;;;;;0.70;0.70;;;17.70;99.90;;;;;;5090919;28;20973;-79
2022/02/09 12:29:33;;;;;;;1.10;0.60;;;17.60;99.90;;;;;;5093700;28;20506;-78
2022/02/09 12:32:02;;;;;;;0.60;0.60;;;17.60;99.90;;;;;;5086716;28;20534;-79
2022/02/09 12:34:38;;;;;;;0.77;0.70;;;17.50;99.90;;;;;;5084218;28;20646;-78
2022/02/09 12:37:12;;;;;;;0.80;0.63;;;17.50;99.90;;;;;;5088228;28;20453;-79
2022/02/09 12:39:48;;;;;;;0.60;0.57;;;17.60;99.90;;;;;;5074171;28;20496;-79
2022/02/09 12:42:19;;;;;;;0.50;0.50;;;17.60;99.90;;;;;;5082225;28;20449;-79
2022/02/09 12:44:58;;;;;;;0.90;0.70;;;17.60;99.90;;;;;;5091316;28;20457;-78
2022/02/09 12:47:31;;;;;;;0.50;0.50;;;17.50;99.90;;;;;;5088468;28;20788;-78
2022/02/09 12:50:01;;;;;;;0.50;0.50;;;17.50;99.90;;;;;;5078235;28;20483;-79
2022/02/09 12:52:30;;;;;;;0.40;0.40;;;17.50;99.90;;;;;;5089617;28;20571;-79
2022/02/09 12:55:05;;;;;;;0.80;0.60;;;17.40;99.90;;;;;;5087781;28;20486;-79
2022/02/09 12:57:38;;;;;;;0.70;0.60;;;17.40;99.90;;;;;;5099594;28;20460;-78
2022/02/09 13:00:09;;;;;;;0.60;0.57;;;17.40;99.90;;;;;;5099644;28;20486;-79
2022/02/09 13:02:45;;;;;;;0.50;0.50;;;17.30;99.90;;;;;;5095406;28;20481;-79
2022/02/09 13:05:14;;;;;;;0.90;0.60;;;17.50;99.90;;;;;;5083774;28;20458;-79
2022/02/09 13:07:51;;;;;;;0.70;0.60;;;17.50;99.90;;;;;;5080753;28;20469;-79
2022/02/09 13:10:27;;;;;;;0.73;0.50;;;17.70;99.90;;;;;;5078304;28;20994;-79
2022/02/09 13:13:05;;;;;;;0.60;0.60;;;17.60;99.90;;;;;;5060330;28;20461;-79
2022/02/09 13:15:42;;;;;;;0.83;0.83;;;17.50;99.90;;;;;;5064863;28;20900;-79
2022/02/09 13:18:43;;;;;;;1.50;0.50;;;17.40;99.90;;;;;;5084722;28;20752;-79
2022/02/09 13:24:55;;;;;;;0.60;0.50;;;17.50;99.90;;;;;;5079741;28;20460;-79
2022/02/09 14:15:24;;;;;;;0.90;0.80;;;17.90;99.90;;;;;;5057983;28;20561;-79
2022/02/09 14:18:16;;;;;;;1.37;0.60;;;17.80;99.90;;;;;;5073102;28;20461;-80
2022/02/09 14:35:19;;;;;;;1.63;0.50;;;17.60;99.90;;;;;;5038768;28;21273;-79
2022/02/09 14:52:01;;;;;;;0.80;0.60;;;17.50;99.90;;;;;;5076314;28;20534;-79
2022/02/09 14:54:38;;;;;;;0.50;0.50;;;17.40;99.90;;;;;;5064901;28;20485;-79
2022/02/09 14:57:10;;;;;;;0.80;0.50;;;17.40;99.90;;;;;;5076139;28;20953;-79
2022/02/09 15:00:01;;;;;;;0.90;0.73;;;17.30;99.90;;;;;;5073703;28;20657;-78
2022/02/09 15:02:41;;;;;;;0.80;0.60;;;17.30;99.90;;;;;;5078817;28;21134;-79
2022/02/09 15:08:07;;;;;;;0.73;0.70;;;17.30;99.90;;;;;;5062929;28;20948;-79
2022/02/09 15:10:43;;;;;;;0.60;0.60;;;17.30;99.90;;;;;;5073386;28;20516;-80
2022/02/09 15:16:02;;;;;;;0.70;0.50;;;17.30;99.90;;;;;;5073430;28;20576;-79
2022/02/09 15:19:01;;;;;;;0.50;0.50;;;17.10;99.90;;;;;;5075923;28;20548;-79
2022/02/09 15:21:58;;;;;;;1.43;0.60;;;17.10;99.90;;;;;;5072537;28;20456;-79
2022/02/09 15:24:18;;;;;;;0.63;0.60;;;17.10;99.90;;;;;;5074379;28;20799;-79
2022/02/09 15:26:50;;;;;;;0.53;0.53;;;17.00;99.90;;;;;;5079575;28;20460;-79
2022/02/09 15:29:19;;;;;;;0.53;0.50;;;17.00;99.90;;;;;;5076866;28;20470;-80
2022/02/09 15:31:51;;;;;;;0.60;0.60;;;17.10;99.90;;;;;;5082792;28;20522;-79
2022/02/09 15:34:26;;;;;;;0.50;0.50;;;17.00;99.90;;;;;;5078707;28;21011;-79
2022/02/09 15:37:03;;;;;;;0.77;0.60;;;17.00;99.90;;;;;;5073691;28;20472;-79
2022/02/09 15:39:39;;;;;;;0.50;0.50;;;17.00;99.90;;;;;;5065225;28;20481;-79
2022/02/09 15:59:23;;;;;;;0.60;0.60;;;17.00;99.90;;;;;;5015417;28;20546;-80
2022/02/09 16:10:28;;;;;;;1.57;0.80;;;16.80;99.90;;;;;;5059109;28;20506;-79
2022/02/09 16:23:57;;;;;;;3.40;0.70;;;16.70;99.90;;;;;;5059831;28;20526;-78
2022/02/09 16:37:59;;;;;;;1.50;0.90;;;16.40;99.90;;;;;;5053792;28;20466;-78
2022/02/09 16:46:15;;;;;;;1.20;1.00;;;16.30;99.90;;;;;;5076896;28;20813;-78
2022/02/09 16:48:52;;;;;;;1.03;0.93;;;16.20;99.90;;;;;;5074286;28;20801;-79
2022/02/09 16:51:22;;;;;;;1.43;1.33;;;16.20;99.90;;;;;;5079861;28;20455;-79
2022/02/09 16:54:05;;;;;;;1.23;1.10;;;16.10;99.90;;;;;;5077453;28;20798;-78
2022/02/09 17:18:58;;;;;;;2.83;1.20;;;15.70;99.90;;;;;;5072390;28;20465;-78
2022/02/09 17:21:29;;;;;;;4.77;1.00;;;15.60;99.90;;;;;;5078536;28;20508;-78
2022/02/09 17:23:59;;;;;;;1.23;1.13;;;15.50;99.90;;;;;;5075714;28;20931;-77
2022/02/09 17:26:27;;;;;;;2.27;0.90;;;15.60;99.90;;;;;;5080695;28;20464;-78
2022/02/09 17:29:01;;;;;;;2.37;1.30;;;15.50;99.90;;;;;;5074200;28;20856;-78
2022/02/09 17:31:44;;;;;;;1.50;1.10;;;15.50;99.30;;;;;;5078078;28;20449;-78
2022/02/09 17:34:43;;;;;;;1.27;1.00;;;15.50;98.90;;;;;;5078716;28;20965;-78
2022/02/09 17:37:33;;;;;;;1.30;1.20;;;15.40;99.00;;;;;;5076455;28;20461;-78
2022/02/09 17:53:56;;;;;;;2.20;1.27;;;15.00;98.90;;;;;;5076837;28;20840;-79
2022/02/09 17:56:28;;;;;;;2.53;1.23;;;15.00;99.80;;;;;;5054621;28;20489;-79
2022/02/09 17:59:00;;;;;;;2.30;1.37;;;14.90;99.20;;;;;;5074478;28;21016;-77
2022/02/09 18:01:28;;;;;;;2.88;1.50;;;14.90;99.80;;;;;;5080794;28;20925;-80
2022/02/09 18:03:57;;;;;;;2.07;1.87;;;14.90;99.60;;;;;;5087188;28;20240;-79
2022/02/09 18:06:29;;;;;;;2.87;1.80;;;14.90;99.40;;;;;;5075337;28;20997;-80
2022/02/09 18:09:05;;;;;;;1.80;1.20;;;14.70;99.20;;;;;;5081861;28;20530;-79
2022/02/09 18:11:47;;;;;;;2.17;1.30;;;14.70;99.00;;;;;;5068027;28;20445;-80
2022/02/09 18:14:35;;;;;;;3.87;2.27;;;14.60;98.80;;;;;;5081437;28;20484;-80
2022/02/09 18:25:55;;;;;;;4.63;3.10;;;14.20;98.40;;;;;;5066608;28;20552;-79
2022/02/09 18:28:57;;;;;;;2.83;1.97;;;14.10;98.00;;;;;;5074579;28;20446;-79
2022/02/09 18:31:35;;;;;;;4.10;1.63;;;14.00;98.60;;;;;;5074580;28;20462;-79
2022/02/09 18:34:18;;;;;;;4.70;2.47;;;13.80;98.30;;;;;;5074316;28;20452;-78
2022/02/09 18:45:27;;;;;;;3.17;1.50;;;13.50;98.20;;;;;;5046237;28;20526;-80
2022/02/09 18:48:10;;;;;;;4.80;2.13;;;13.50;98.40;;;;;;5076965;28;20529;-80
2022/02/09 19:02:07;;;;;;;10.63;4.70;;;13.40;99.90;;;;;;5076362;28;20513;-80
2022/02/09 19:04:41;;;;;;;5.67;4.33;;;13.40;99.90;;;;;;5081048;28;20437;-80
2022/02/09 19:07:20;;;;;;;5.37;3.40;;;13.40;99.90;;;;;;5073341;28;20453;-81
2022/02/09 19:15:45;;;;;;;4.30;2.80;;;13.40;99.90;;;;;;5078943;28;20542;-81
2022/02/09 19:26:16;;;;;;;3.30;2.07;;;13.40;98.60;;;;;;5076930;28;20924;-80
2022/02/09 19:26:55;;;;;;;4.43;3.27;;;13.30;98.40;;;;;;5076645;28;20462;-80
2022/02/09 19:32:32;;;;;;;3.40;2.73;;;13.40;96.40;;;;;;5073533;28;20542;-80
2022/02/09 19:46:18;;;;;;;5.70;2.90;;;13.20;87.40;;;;;;5077696;28;20522;-82
2022/02/09 19:48:56;;;;;;;4.17;2.10;;;13.20;87.40;;;;;;5075893;28;20462;-83
2022/02/09 19:51:38;;;;;;;5.97;2.83;;;13.30;88.10;;;;;;5080349;28;20482;-83
2022/02/09 19:54:12;;;;;;;3.23;1.93;;;13.30;86.40;;;;;;5076963;28;20469;-83
2022/02/09 19:56:48;;;;;;;2.43;2.00;;;13.30;82.80;;;;;;5085466;28;20461;-82
2022/02/09 19:59:19;;;;;;;1.90;1.70;;;13.30;82.00;;;;;;5060327;28;20478;-82
2022/02/09 20:01:48;;;;;;;2.50;1.87;;;13.30;80.10;;;;;;5084030;28;20527;-83
2022/02/09 20:04:20;;;;;;;2.37;1.67;;;13.20;77.60;;;;;;5077753;28;20439;-83
2022/02/09 20:06:48;;;;;;;1.90;1.60;;;13.20;77.10;;;;;;5073792;28;20481;-82
2022/02/09 20:09:18;;;;;;;3.17;2.87;;;13.20;78.20;;;;;;5068775;28;21069;-83
2022/02/09 20:11:46;;;;;;;12.73;5.53;;;13.20;78.90;;;;;;5078109;28;20867;-81
2022/02/09 20:14:15;;;;;;;13.57;5.23;;;13.20;79.30;;;;;;5074122;28;20494;-81
2022/02/09 20:16:43;;;;;;;6.50;3.17;;;13.20;78.90;;;;;;5078101;28;20507;-82
2022/02/09 20:19:12;;;;;;;3.97;2.55;;;13.10;78.20;;;;;;5078317;28;20454;-82
2022/02/09 20:21:42;;;;;;;3.23;1.80;;;13.10;76.70;;;;;;5069133;28;20673;-82
2022/02/09 20:24:13;;;;;;;2.77;1.80;;;13.00;74.90;;;;;;5079868;28;20466;-82
2022/02/09 20:26:43;;;;;;;3.77;2.00;;;13.00;74.80;;;;;;5083746;28;20530;-82
2022/02/09 20:29:16;;;;;;;2.33;1.70;;;12.90;72.40;;;;;;5080907;28;20470;-82
2022/02/09 20:31:51;;;;;;;4.40;2.20;;;12.80;73.30;;;;;;5081567;28;20953;-83
2022/02/09 20:34:26;;;;;;;3.20;2.07;;;12.70;72.00;;;;;;5077031;28;20488;-82
2022/02/09 20:36:56;;;;;;;3.43;2.43;;;12.60;72.40;;;;;;5080888;28;20891;-82
2022/02/09 20:39:29;;;;;;;2.70;2.10;;;12.60;69.40;;;;;;5080688;28;20475;-82
2022/02/09 20:41:58;;;;;;;5.30;2.60;;;12.60;70.10;;;;;;5079896;28;20985;-83
2022/02/09 20:44:33;;;;;;;7.80;3.40;;;12.50;70.70;;;;;;5081964;28;20450;-82
2022/02/09 20:47:02;;;;;;;4.90;2.97;;;12.50;69.70;;;;;;5083922;28;20987;-82
2022/02/09 20:49:31;;;;;;;3.93;3.30;;;12.50;89.60;;;;;;5066988;28;20466;-81
2022/02/09 20:52:01;;;;;;;6.30;3.40;;;12.50;72.00;;;;;;5074332;28;20454;-81
2022/02/09 20:54:29;;;;;;;5.23;3.17;;;12.50;70.90;;;;;;5082524;28;20464;-81
2022/02/09 20:56:58;;;;;;;5.30;3.33;;;12.50;71.30;;;;;;5080141;28;20541;-81
2022/02/09 20:59:27;;;;;;;3.97;2.97;;;12.50;73.20;;;;;;5068239;28;20524;-81
2022/02/09 21:02:02;;;;;;;4.30;2.87;;;12.50;73.70;;;;;;5081981;28;20442;-81
2022/02/09 21:04:35;;;;;;;5.17;3.03;;;12.30;70.70;;;;;;5082209;28;20442;-81
2022/02/09 21:07:13;;;;;;;3.20;2.90;;;12.20;70.60;;;;;;5064469;28;20458;-80
2022/02/09 21:09:49;;;;;;;3.13;2.63;;;12.20;69.60;;;;;;5076943;28;20478;-80
2022/02/09 21:12:30;;;;;;;4.83;2.60;;;12.10;70.00;;;;;;5077615;28;20905;-82
2022/02/09 21:15:28;;;;;;;4.70;2.80;;;11.90;67.50;;;;;;5077289;28;21042;-82
2022/02/09 21:18:24;;;;;;;5.40;3.40;;;11.90;68.80;;;;;;5078733;28;20481;-81
2022/02/09 21:21:17;;;;;;;3.73;2.77;;;11.80;67.50;;;;;;5064339;28;20482;-80
2022/02/09 21:54:41;;;;;;;5.50;2.40;;;11.10;63.30;;;;;;5037754;28;20461;-80
2022/02/09 21:57:18;;;;;;;4.10;2.53;;;11.00;64.50;;;;;;5079553;28;20485;-80
2022/02/09 22:00:15;;;;;;;7.33;2.63;;;11.10;65.00;;;;;;5061493;28;20596;-80
2022/02/09 22:16:50;;;;;;;3.10;2.70;;;10.80;60.90;;;;;;5080201;28;20458;-80
2022/02/09 22:19:43;;;;;;;3.60;2.50;;;10.70;59.60;;;;;;5076646;28;20480;-80
2022/02/09 22:22:38;;;;;;;5.90;2.67;;;10.70;60.70;;;;;;5074758;28;20824;-80
2022/02/09 22:27:52;;;;;;;8.97;4.17;;;10.80;64.00;;;;;;5079508;28;20455;-80
2022/02/09 22:50:09;;;;;;;4.30;3.10;;;10.70;58.90;;;;;;5068500;28;20524;-80
2022/02/09 22:55:26;;;;;;;3.13;2.20;;;10.90;59.50;;;;;;5075993;28;20462;-79
2022/02/09 22:57:58;;;;;;;3.37;2.47;;;11.00;58.60;;;;;;5071986;28;20462;-79
2022/02/09 23:00:44;;;;;;;5.83;3.03;;;10.90;56.90;;;;;;5081394;28;20482;-80
2022/02/09 23:03:21;;;;;;;2.70;2.40;;;11.00;57.10;;;;;;5063454;28;20515;-80
2022/02/09 23:06:09;;;;;;;6.73;2.90;;;11.00;57.50;;;;;;5072145;28;20961;-80
2022/02/09 23:09:11;;;;;;;2.40;2.10;;;11.00;57.00;;;;;;5077713;28;20463;-80
2022/02/09 23:14:40;;;;;;;4.60;2.40;;;10.90;54.40;;;;;;5062101;28;20461;-80
2022/02/09 23:20:31;;;;;;;3.93;2.40;;;10.70;54.50;;;;;;5079289;28;20234;-80
